sensor_id;sensor_type;location;lat;lon;timestamp;pressure;altitude;pressure_sealevel;temperature;humidity
82413;BME280;72056;51.980;15.436;2023-12-20T00:00:23;100115.78;;;7.10;100.00
82413;BME280;72056;51.980;15.436;2023-12-20T00:03:10;100105.13;;;6.87;100.00
82413;BME280;72056;51.980;15.436;2023-12-20T00:05:38;100103.56;;;7.15;100.00
82413;BME280;72056;51.980;15.436;2023-12-20T00:08:08;100107.22;;;7.05;100.00
82413;BME280;72056;51.980;15.436;2023-12-20T00:10:34;100104.09;;;7.09;100.00
82413;BME280;72056;51.980;15.436;2023-12-20T00:13:00;100100.09;;;7.04;100.00
82413;BME280;72056;51.980;15.436;2023-12-20T00:15:29;100091.13;;;7.03;100.00
82413;BME280;72056;51.980;15.436;2023-12-20T00:17:59;100092.66;;;6.96;100.00
82413;BME280;72056;51.980;15.436;2023-12-20T00:20:25;100099.53;;;6.79;100.00
82413;BME280;72056;51.980;15.436;2023-12-20T00:22:53;100085.31;;;7.08;100.00
82413;BME280;72056;51.980;15.436;2023-12-20T00:25:20;100088.56;;;7.02;100.00
82413;BME280;72056;51.980;15.436;2023-12-20T00:27:47;100088.72;;;7.10;100.00
82413;BME280;72056;51.980;15.436;2023-12-20T00:30:14;100093.00;;;7.03;100.00
82413;BME280;72056;51.980;15.436;2023-12-20T00:32:41;100089.19;;;6.84;100.00
82413;BME280;72056;51.980;15.436;2023-12-20T00:35:13;100098.00;;;6.86;100.00
82413;BME280;72056;51.980;15.436;2023-12-20T00:37:40;100096.41;;;7.05;100.00
82413;BME280;72056;51.980;15.436;2023-12-20T00:40:08;100094.94;;;6.91;100.00
82413;BME280;72056;51.980;15.436;2023-12-20T00:42:37;100086.56;;;7.04;100.00
82413;BME280;72056;51.980;15.436;2023-12-20T00:45:05;100089.22;;;6.94;100.00
82413;BME280;72056;51.980;15.436;2023-12-20T00:47:34;100092.16;;;7.12;100.00
82413;BME280;72056;51.980;15.436;2023-12-20T00:50:01;100096.41;;;7.05;100.00
82413;BME280;72056;51.980;15.436;2023-12-20T00:52:28;100092.47;;;7.09;100.00
82413;BME280;72056;51.980;15.436;2023-12-20T00:54:55;100088.66;;;6.90;100.00
82413;BME280;72056;51.980;15.436;2023-12-20T00:57:26;100098.16;;;6.64;100.00
82413;BME280;72056;51.980;15.436;2023-12-20T00:59:58;100083.31;;;7.10;100.00
82413;BME280;72056;51.980;15.436;2023-12-20T01:02:25;100083.69;;;6.75;100.00
82413;BME280;72056;51.980;15.436;2023-12-20T01:04:51;100082.88;;;7.05;100.00
82413;BME280;72056;51.980;15.436;2023-12-20T01:07:18;100081.53;;;6.89;100.00
82413;BME280;72056;51.980;15.436;2023-12-20T01:09:45;100087.25;;;6.96;100.00
82413;BME280;72056;51.980;15.436;2023-12-20T01:12:16;100080.53;;;6.90;100.00
82413;BME280;72056;51.980;15.436;2023-12-20T01:14:43;100083.00;;;7.03;100.00
82413;BME280;72056;51.980;15.436;2023-12-20T01:17:10;100085.25;;;6.98;100.00
82413;BME280;72056;51.980;15.436;2023-12-20T01:19:41;100080.66;;;6.89;100.00
82413;BME280;72056;51.980;15.436;2023-12-20T01:22:09;100078.38;;;6.84;100.00
82413;BME280;72056;51.980;15.436;2023-12-20T01:24:36;100077.28;;;6.96;100.00
82413;BME280;72056;51.980;15.436;2023-12-20T01:27:04;100069.88;;;6.98;100.00
82413;BME280;72056;51.980;15.436;2023-12-20T01:29:31;100070.50;;;7.12;100.00
82413;BME280;72056;51.980;15.436;2023-12-20T01:31:58;100068.75;;;7.01;100.00
82413;BME280;72056;51.980;15.436;2023-12-20T01:34:25;100072.13;;;6.93;100.00
82413;BME280;72056;51.980;15.436;2023-12-20T01:36:53;100067.53;;;6.84;100.00
82413;BME280;72056;51.980;15.436;2023-12-20T01:39:21;100063.88;;;6.95;100.00
82413;BME280;72056;51.980;15.436;2023-12-20T01:41:50;100059.06;;;6.98;100.00
82413;BME280;72056;51.980;15.436;2023-12-20T01:44:18;100061.81;;;7.08;100.00
82413;BME280;72056;51.980;15.436;2023-12-20T01:46:45;100055.91;;;6.93;100.00
82413;BME280;72056;51.980;15.436;2023-12-20T01:49:14;100045.97;;;7.04;100.00
82413;BME280;72056;51.980;15.436;2023-12-20T01:51:43;100041.38;;;6.94;100.00
82413;BME280;72056;51.980;15.436;2023-12-20T01:54:10;100044.53;;;7.00;100.00
82413;BME280;72056;51.980;15.436;2023-12-20T01:56:38;100030.28;;;6.97;100.00
82413;BME280;72056;51.980;15.436;2023-12-20T01:59:06;100037.94;;;6.92;100.00
82413;BME280;72056;51.980;15.436;2023-12-20T02:01:33;100032.81;;;6.89;100.00
82413;BME280;72056;51.980;15.436;2023-12-20T02:04:01;100028.31;;;7.00;100.00
82413;BME280;72056;51.980;15.436;2023-12-20T02:06:30;100026.22;;;6.82;100.00
82413;BME280;72056;51.980;15.436;2023-12-20T02:09:00;100032.00;;;6.98;100.00
82413;BME280;72056;51.980;15.436;2023-12-20T02:11:27;100024.59;;;7.01;100.00
82413;BME280;72056;51.980;15.436;2023-12-20T02:13:55;100036.06;;;6.83;100.00
82413;BME280;72056;51.980;15.436;2023-12-20T02:16:22;100028.94;;;6.82;100.00
82413;BME280;72056;51.980;15.436;2023-12-20T02:18:49;100030.47;;;6.75;100.00
82413;BME280;72056;51.980;15.436;2023-12-20T02:21:16;100022.34;;;6.75;100.00
82413;BME280;72056;51.980;15.436;2023-12-20T02:23:47;100026.44;;;6.70;100.00
82413;BME280;72056;51.980;15.436;2023-12-20T02:26:15;100020.00;;;6.61;100.00
82413;BME280;72056;51.980;15.436;2023-12-20T02:28:41;100029.38;;;6.87;100.00
82413;BME280;72056;51.980;15.436;2023-12-20T02:31:08;100033.28;;;6.94;100.00
82413;BME280;72056;51.980;15.436;2023-12-20T02:33:40;100025.50;;;6.80;100.00
82413;BME280;72056;51.980;15.436;2023-12-20T02:36:08;100020.28;;;6.68;100.00
82413;BME280;72056;51.980;15.436;2023-12-20T02:38:36;100016.84;;;6.86;100.00
82413;BME280;72056;51.980;15.436;2023-12-20T02:41:07;100009.16;;;6.91;100.00
82413;BME280;72056;51.980;15.436;2023-12-20T02:43:34;100014.75;;;6.90;100.00
82413;BME280;72056;51.980;15.436;2023-12-20T02:46:01;100015.19;;;6.95;100.00
82413;BME280;72056;51.980;15.436;2023-12-20T02:48:29;100008.16;;;6.83;100.00
82413;BME280;72056;51.980;15.436;2023-12-20T02:51:00;100002.44;;;6.86;100.00
82413;BME280;72056;51.980;15.436;2023-12-20T02:53:28;100012.13;;;6.79;100.00
82413;BME280;72056;51.980;15.436;2023-12-20T02:55:59;100009.88;;;6.84;100.00
82413;BME280;72056;51.980;15.436;2023-12-20T02:58:26;100012.34;;;6.96;100.00
82413;BME280;72056;51.980;15.436;2023-12-20T03:00:55;99999.06;;;6.63;100.00
82413;BME280;72056;51.980;15.436;2023-12-20T03:03:21;100002.44;;;6.86;100.00
82413;BME280;72056;51.980;15.436;2023-12-20T03:05:49;99995.19;;;6.86;100.00
82413;BME280;72056;51.980;15.436;2023-12-20T03:08:20;100001.31;;;6.79;100.00
82413;BME280;72056;51.980;15.436;2023-12-20T03:10:51;100002.53;;;6.75;100.00
82413;BME280;72056;51.980;15.436;2023-12-20T03:13:19;99991.63;;;6.86;100.00
82413;BME280;72056;51.980;15.436;2023-12-20T03:15:48;99991.56;;;6.67;100.00
82413;BME280;72056;51.980;15.436;2023-12-20T03:18:15;99988.44;;;6.71;100.00
82413;BME280;72056;51.980;15.436;2023-12-20T03:20:44;99986.81;;;6.89;100.00
82413;BME280;72056;51.980;15.436;2023-12-20T03:23:11;99986.94;;;6.78;100.00
82413;BME280;72056;51.980;15.436;2023-12-20T03:25:38;99992.91;;;6.82;100.00
82413;BME280;72056;51.980;15.436;2023-12-20T03:28:05;99984.25;;;6.88;100.00
82413;BME280;72056;51.980;15.436;2023-12-20T03:30:33;99988.44;;;6.41;100.00
82413;BME280;72056;51.980;15.436;2023-12-20T03:33:00;99991.16;;;6.71;100.00
82413;BME280;72056;51.980;15.436;2023-12-20T03:35:28;99973.94;;;6.72;100.00
82413;BME280;72056;51.980;15.436;2023-12-20T03:37:56;99986.09;;;6.87;100.00
82413;BME280;72056;51.980;15.436;2023-12-20T03:40:24;99987.41;;;6.63;100.00
82413;BME280;72056;51.980;15.436;2023-12-20T03:42:51;99977.66;;;6.81;100.00
82413;BME280;72056;51.980;15.436;2023-12-20T03:45:17;99976.69;;;6.82;100.00
82413;BME280;72056;51.980;15.436;2023-12-20T03:47:48;99982.09;;;6.82;100.00
82413;BME280;72056;51.980;15.436;2023-12-20T03:50:22;99988.06;;;6.85;100.00
82413;BME280;72056;51.980;15.436;2023-12-20T03:52:49;99982.75;;;6.74;100.00
82413;BME280;72056;51.980;15.436;2023-12-20T03:55:15;99986.09;;;6.87;100.00
82413;BME280;72056;51.980;15.436;2023-12-20T03:57:42;99992.81;;;6.93;100.00
82413;BME280;72056;51.980;15.436;2023-12-20T04:00:14;99991.16;;;6.71;100.00
82413;BME280;72056;51.980;15.436;2023-12-20T04:02:42;99989.34;;;6.81;100.00
82413;BME280;72056;51.980;15.436;2023-12-20T04:05:09;99986.75;;;6.80;100.00
82413;BME280;72056;51.980;15.436;2023-12-20T04:07:36;99987.09;;;6.86;100.00
82413;BME280;72056;51.980;15.436;2023-12-20T04:10:03;99984.31;;;6.67;100.00
82413;BME280;72056;51.980;15.436;2023-12-20T04:12:30;99987.06;;;6.77;100.00
82413;BME280;72056;51.980;15.436;2023-12-20T04:14:56;99987.28;;;7.04;100.00
82413;BME280;72056;51.980;15.436;2023-12-20T04:17:23;99981.31;;;6.70;100.00
82413;BME280;72056;51.980;15.436;2023-12-20T04:19:50;99974.50;;;6.76;100.00
82413;BME280;72056;51.980;15.436;2023-12-20T04:22:18;99978.81;;;6.78;100.00
82413;BME280;72056;51.980;15.436;2023-12-20T04:24:45;99978.09;;;6.55;100.00
82413;BME280;72056;51.980;15.436;2023-12-20T04:27:12;99981.22;;;6.81;100.00
82413;BME280;72056;51.980;15.436;2023-12-20T04:29:40;99985.63;;;6.52;100.00
82413;BME280;72056;51.980;15.436;2023-12-20T04:32:07;99983.03;;;6.71;100.00
82413;BME280;72056;51.980;15.436;2023-12-20T04:34:38;99977.44;;;6.63;100.00
82413;BME280;72056;51.980;15.436;2023-12-20T04:37:05;99978.41;;;6.92;100.00
82413;BME280;72056;51.980;15.436;2023-12-20T04:39:33;99980.50;;;6.79;100.00
82413;BME280;72056;51.980;15.436;2023-12-20T04:42:01;99974.72;;;6.93;100.00
82413;BME280;72056;51.980;15.436;2023-12-20T04:44:29;99968.22;;;6.66;100.00
82413;BME280;72056;51.980;15.436;2023-12-20T04:46:56;99970.09;;;6.75;100.00
82413;BME280;72056;51.980;15.436;2023-12-20T04:49:27;99970.84;;;6.56;100.00
82413;BME280;72056;51.980;15.436;2023-12-20T04:51:58;99972.16;;;6.92;100.00
82413;BME280;72056;51.980;15.436;2023-12-20T04:54:25;99981.78;;;6.75;100.00
82413;BME280;72056;51.980;15.436;2023-12-20T04:56:53;99986.50;;;6.83;100.00
82413;BME280;72056;51.980;15.436;2023-12-20T04:59:22;99984.53;;;6.85;100.00
82413;BME280;72056;51.980;15.436;2023-12-20T05:01:51;99981.75;;;6.66;100.00
82413;BME280;72056;51.980;15.436;2023-12-20T05:04:19;99976.41;;;6.85;100.00
82413;BME280;72056;51.980;15.436;2023-12-20T05:06:50;99978.03;;;6.97;100.00
82413;BME280;72056;51.980;15.436;2023-12-20T05:09:17;99966.16;;;6.88;100.00
82413;BME280;72056;51.980;15.436;2023-12-20T05:11:44;99966.59;;;6.93;100.00
82413;BME280;72056;51.980;15.436;2023-12-20T05:14:12;99966.50;;;6.65;100.00
82413;BME280;72056;51.980;15.436;2023-12-20T05:16:39;99968.38;;;6.74;100.00
82413;BME280;72056;51.980;15.436;2023-12-20T05:19:08;99979.44;;;6.61;100.00
82413;BME280;72056;51.980;15.436;2023-12-20T05:21:35;99968.00;;;6.88;100.00
82413;BME280;72056;51.980;15.436;2023-12-20T05:24:03;99972.56;;;6.87;100.00
82413;BME280;72056;51.980;15.436;2023-12-20T05:26:31;99968.00;;;6.88;100.00
82413;BME280;72056;51.980;15.436;2023-12-20T05:29:03;99969.50;;;7.02;100.00
82413;BME280;72056;51.980;15.436;2023-12-20T05:31:31;99974.50;;;6.76;100.00
82413;BME280;72056;51.980;15.436;2023-12-20T05:33:59;99973.97;;;6.82;100.00
82413;BME280;72056;51.980;15.436;2023-12-20T05:36:26;99982.19;;;6.50;100.00
82413;BME280;72056;51.980;15.436;2023-12-20T05:38:54;99984.31;;;6.67;100.00
82413;BME280;72056;51.980;15.436;2023-12-20T05:41:20;99982.06;;;6.72;100.00
82413;BME280;72056;51.980;15.436;2023-12-20T05:43:48;99989.78;;;6.86;100.00
82413;BME280;72056;51.980;15.436;2023-12-20T05:46:17;99980.31;;;7.02;100.00
82413;BME280;72056;51.980;15.436;2023-12-20T05:48:45;99976.88;;;7.00;100.00
82413;BME280;72056;51.980;15.436;2023-12-20T05:51:12;99971.75;;;6.96;100.00
82413;BME280;72056;51.980;15.436;2023-12-20T05:53:39;99961.19;;;6.93;100.00
82413;BME280;72056;51.980;15.436;2023-12-20T05:56:10;99960.66;;;7.00;100.00
82413;BME280;72056;51.980;15.436;2023-12-20T05:58:39;99975.19;;;6.68;100.00
82413;BME280;72056;51.980;15.436;2023-12-20T06:01:06;99974.53;;;6.85;100.00
82413;BME280;72056;51.980;15.436;2023-12-20T06:03:34;99980.91;;;6.75;100.00
82413;BME280;72056;51.980;15.436;2023-12-20T06:06:24;99975.56;;;6.84;100.00
82413;BME280;72056;51.980;15.436;2023-12-20T06:08:53;99981.22;;;6.81;100.00
82413;BME280;72056;51.980;15.436;2023-12-20T06:11:21;99978.41;;;6.92;100.00
82413;BME280;72056;51.980;15.436;2023-12-20T06:13:52;99974.97;;;6.81;100.00
82413;BME280;72056;51.980;15.436;2023-12-20T06:16:20;99972.13;;;6.82;100.00
82413;BME280;72056;51.980;15.436;2023-12-20T06:18:47;99977.44;;;6.93;100.00
82413;BME280;72056;51.980;15.436;2023-12-20T06:21:19;99974.88;;;6.62;100.00
82413;BME280;72056;51.980;15.436;2023-12-20T06:23:47;99979.06;;;6.75;100.00
82413;BME280;72056;51.980;15.436;2023-12-20T06:26:14;99979.72;;;6.68;100.00
82413;BME280;72056;51.980;15.436;2023-12-20T06:28:41;99990.28;;;6.71;100.00
82413;BME280;72056;51.980;15.436;2023-12-20T06:31:07;99993.22;;;6.58;100.00
82413;BME280;72056;51.980;15.436;2023-12-20T06:33:35;99983.91;;;6.72;100.00
82413;BME280;72056;51.980;15.436;2023-12-20T06:36:01;99979.91;;;6.76;100.00
82413;BME280;72056;51.980;15.436;2023-12-20T06:38:29;99980.06;;;6.74;100.00
82413;BME280;72056;51.980;15.436;2023-12-20T06:41:00;99970.09;;;6.75;100.00
82413;BME280;72056;51.980;15.436;2023-12-20T06:43:28;99982.84;;;6.63;100.00
82413;BME280;72056;51.980;15.436;2023-12-20T06:46:02;99992.63;;;6.54;100.00
82413;BME280;72056;51.980;15.436;2023-12-20T06:48:29;99990.88;;;6.74;100.00
82413;BME280;72056;51.980;15.436;2023-12-20T06:50:56;99997.75;;;6.78;100.00
82413;BME280;72056;51.980;15.436;2023-12-20T06:53:25;99998.13;;;6.74;100.00
82413;BME280;72056;51.980;15.436;2023-12-20T06:55:52;99993.31;;;6.77;100.00
82413;BME280;72056;51.980;15.436;2023-12-20T06:58:23;100003.31;;;6.86;100.00
82413;BME280;72056;51.980;15.436;2023-12-20T07:00:53;100017.59;;;6.68;100.00
82413;BME280;72056;51.980;15.436;2023-12-20T07:03:24;100016.44;;;6.61;100.00
82413;BME280;72056;51.980;15.436;2023-12-20T07:05:52;100011.59;;;6.64;100.00
82413;BME280;72056;51.980;15.436;2023-12-20T07:08:19;100011.47;;;6.66;100.00
82413;BME280;72056;51.980;15.436;2023-12-20T07:10:50;100017.78;;;6.76;100.00
82413;BME280;72056;51.980;15.436;2023-12-20T07:13:22;100017.50;;;6.48;100.00
82413;BME280;72056;51.980;15.436;2023-12-20T07:15:49;100025.34;;;6.72;100.00
82413;BME280;72056;51.980;15.436;2023-12-20T07:18:18;100027.38;;;6.59;100.00
82413;BME280;72056;51.980;15.436;2023-12-20T07:20:45;100041.34;;;6.85;100.00
82413;BME280;72056;51.980;15.436;2023-12-20T07:23:17;100030.50;;;6.54;100.00
82413;BME280;72056;51.980;15.436;2023-12-20T07:25:49;100040.19;;;6.87;100.00
82413;BME280;72056;51.980;15.436;2023-12-20T07:28:18;100028.75;;;6.74;100.00
82413;BME280;72056;51.980;15.436;2023-12-20T07:30:52;100030.00;;;6.70;100.00
82413;BME280;72056;51.980;15.436;2023-12-20T07:33:20;100033.13;;;6.45;100.00
82413;BME280;72056;51.980;15.436;2023-12-20T07:35:47;100039.94;;;6.60;100.00
82413;BME280;72056;51.980;15.436;2023-12-20T07:38:15;100043.25;;;6.32;100.00
82413;BME280;72056;51.980;15.436;2023-12-20T07:40:43;100044.78;;;6.45;100.00
82413;BME280;72056;51.980;15.436;2023-12-20T07:43:09;100051.63;;;6.49;100.00
82413;BME280;72056;51.980;15.436;2023-12-20T07:45:36;100040.19;;;6.36;100.00
82413;BME280;72056;51.980;15.436;2023-12-20T07:48:07;100043.81;;;6.46;100.00
82413;BME280;72056;51.980;15.436;2023-12-20T07:50:35;100049.00;;;6.38;100.00
82413;BME280;72056;51.980;15.436;2023-12-20T07:53:03;100052.09;;;6.34;100.00
82413;BME280;72056;51.980;15.436;2023-12-20T07:55:31;100061.19;;;6.33;100.00
82413;BME280;72056;51.980;15.436;2023-12-20T07:57:59;100054.84;;;6.54;100.00
82413;BME280;72056;51.980;15.436;2023-12-20T08:00:26;100052.69;;;6.17;100.00
82413;BME280;72056;51.980;15.436;2023-12-20T08:02:56;100056.69;;;6.01;100.00
82413;BME280;72056;51.980;15.436;2023-12-20T08:05:26;100049.94;;;6.28;100.00
82413;BME280;72056;51.980;15.436;2023-12-20T08:07:54;100049.19;;;6.26;100.00
82413;BME280;72056;51.980;15.436;2023-12-20T08:10:22;100051.06;;;6.46;100.00
82413;BME280;72056;51.980;15.436;2023-12-20T08:12:51;100048.75;;;6.41;100.00
82413;BME280;72056;51.980;15.436;2023-12-20T08:15:18;100055.28;;;6.39;100.00
82413;BME280;72056;51.980;15.436;2023-12-20T08:17:46;100059.59;;;6.09;100.00
82413;BME280;72056;51.980;15.436;2023-12-20T08:20:13;100050.84;;;6.38;100.00
82413;BME280;72056;51.980;15.436;2023-12-20T08:22:40;100049.06;;;6.27;100.00
82413;BME280;72056;51.980;15.436;2023-12-20T08:25:08;100049.25;;;6.14;100.00
82413;BME280;72056;51.980;15.436;2023-12-20T08:27:40;100042.34;;;6.22;100.00
82413;BME280;72056;51.980;15.436;2023-12-20T08:30:08;100041.94;;;6.05;100.00
82413;BME280;72056;51.980;15.436;2023-12-20T08:32:35;100035.88;;;6.34;100.00
82413;BME280;72056;51.980;15.436;2023-12-20T08:35:01;100045.84;;;6.12;100.00
82413;BME280;72056;51.980;15.436;2023-12-20T08:37:29;100044.88;;;6.13;100.00
82413;BME280;72056;51.980;15.436;2023-12-20T08:39:56;100037.28;;;6.28;100.00
82413;BME280;72056;51.980;15.436;2023-12-20T08:42:24;100039.00;;;6.29;100.00
82413;BME280;72056;51.980;15.436;2023-12-20T08:44:57;100028.16;;;6.71;100.00
82413;BME280;72056;51.980;15.436;2023-12-20T08:47:25;100036.59;;;6.77;100.00
82413;BME280;72056;51.980;15.436;2023-12-20T08:49:52;100048.47;;;6.44;100.00
82413;BME280;72056;51.980;15.436;2023-12-20T08:52:23;100035.69;;;6.26;100.00
82413;BME280;72056;51.980;15.436;2023-12-20T08:54:50;100035.41;;;6.91;100.00
82413;BME280;72056;51.980;15.436;2023-12-20T08:57:20;100035.34;;;6.81;100.00
82413;BME280;72056;51.980;15.436;2023-12-20T08:59:47;100033.53;;;6.61;100.00
82413;BME280;72056;51.980;15.436;2023-12-20T09:02:14;100036.22;;;6.91;100.00
82413;BME280;72056;51.980;15.436;2023-12-20T09:04:45;100034.06;;;6.55;100.00
82413;BME280;72056;51.980;15.436;2023-12-20T09:09:48;100033.53;;;6.61;100.00
82413;BME280;72056;51.980;15.436;2023-12-20T09:12:18;100036.88;;;6.33;100.00
82413;BME280;72056;51.980;15.436;2023-12-20T09:14:49;100030.75;;;6.72;100.00
82413;BME280;72056;51.980;15.436;2023-12-20T09:17:17;100035.97;;;6.43;100.00
82413;BME280;72056;51.980;15.436;2023-12-20T09:19:45;100027.47;;;6.48;100.00
82413;BME280;72056;51.980;15.436;2023-12-20T09:22:12;100026.25;;;6.62;100.00
82413;BME280;72056;51.980;15.436;2023-12-20T09:24:38;100023.81;;;6.59;100.00
82413;BME280;72056;51.980;15.436;2023-12-20T09:27:06;100028.19;;;6.29;100.00
82413;BME280;72056;51.980;15.436;2023-12-20T09:29:33;100028.25;;;6.60;100.00
82413;BME280;72056;51.980;15.436;2023-12-20T09:32:00;100020.41;;;6.87;100.00
82413;BME280;72056;51.980;15.436;2023-12-20T09:34:27;100019.00;;;6.62;100.00
82413;BME280;72056;51.980;15.436;2023-12-20T09:36:54;100032.44;;;6.32;100.00
82413;BME280;72056;51.980;15.436;2023-12-20T09:39:20;100034.31;;;6.52;100.00
82413;BME280;72056;51.980;15.436;2023-12-20T09:42:06;100023.63;;;6.50;100.00
82413;BME280;72056;51.980;15.436;2023-12-20T09:44:34;100018.47;;;6.27;100.00
82413;BME280;72056;51.980;15.436;2023-12-20T09:47:21;100017.16;;;6.63;100.00
82413;BME280;72056;51.980;15.436;2023-12-20T09:49:50;100004.47;;;6.63;100.00
82413;BME280;72056;51.980;15.436;2023-12-20T09:52:18;100007.84;;;6.76;100.00
82413;BME280;72056;51.980;15.436;2023-12-20T09:54:47;99999.84;;;6.75;100.00
82413;BME280;72056;51.980;15.436;2023-12-20T09:57:17;100000.56;;;7.07;100.00
82413;BME280;72056;51.980;15.436;2023-12-20T09:59:44;99997.22;;;6.84;100.00
82413;BME280;72056;51.980;15.436;2023-12-20T10:02:13;99988.91;;;6.55;100.00
82413;BME280;72056;51.980;15.436;2023-12-20T10:04:47;99983.06;;;6.81;100.00
82413;BME280;72056;51.980;15.436;2023-12-20T10:07:18;99976.66;;;6.72;100.00
82413;BME280;72056;51.980;15.436;2023-12-20T10:09:46;99968.84;;;6.79;100.00
82413;BME280;72056;51.980;15.436;2023-12-20T10:12:13;99969.50;;;6.71;100.00
82413;BME280;72056;51.980;15.436;2023-12-20T10:14:41;99972.63;;;6.97;100.00
82413;BME280;72056;51.980;15.436;2023-12-20T10:17:08;99968.75;;;6.90;100.00
82413;BME280;72056;51.980;15.436;2023-12-20T10:19:37;99962.13;;;6.73;100.00
82413;BME280;72056;51.980;15.436;2023-12-20T10:22:04;99977.94;;;6.27;100.00
82413;BME280;72056;51.980;15.436;2023-12-20T10:24:30;99967.53;;;6.22;100.00
82413;BME280;72056;51.980;15.436;2023-12-20T10:27:04;99980.72;;;6.36;100.00
82413;BME280;72056;51.980;15.436;2023-12-20T10:29:34;99978.72;;;6.38;100.00
82413;BME280;72056;51.980;15.436;2023-12-20T10:32:26;99983.16;;;6.19;100.00
82413;BME280;72056;51.980;15.436;2023-12-20T10:34:54;99969.84;;;6.06;100.00
82413;BME280;72056;51.980;15.436;2023-12-20T10:37:25;99964.53;;;6.46;100.00
82413;BME280;72056;51.980;15.436;2023-12-20T10:39:53;99947.91;;;6.50;100.00
82413;BME280;72056;51.980;15.436;2023-12-20T10:42:26;99960.41;;;6.72;100.00
82413;BME280;72056;51.980;15.436;2023-12-20T10:44:53;99950.06;;;6.87;100.00
82413;BME280;72056;51.980;15.436;2023-12-20T10:47:20;99957.16;;;6.48;100.00
82413;BME280;72056;51.980;15.436;2023-12-20T10:49:47;99952.47;;;6.80;100.00
82413;BME280;72056;51.980;15.436;2023-12-20T10:52:17;99952.06;;;6.85;100.00
82413;BME280;72056;51.980;15.436;2023-12-20T10:54:49;99940.84;;;6.99;100.00
82413;BME280;72056;51.980;15.436;2023-12-20T10:57:18;99938.13;;;6.89;100.00
82413;BME280;72056;51.980;15.436;2023-12-20T10:59:49;99929.94;;;6.70;100.00
82413;BME280;72056;51.980;15.436;2023-12-20T11:02:19;99924.75;;;6.97;100.00
82413;BME280;72056;51.980;15.436;2023-12-20T11:07:58;99915.31;;;7.61;100.00
82413;BME280;72056;51.980;15.436;2023-12-20T11:10:37;99929.00;;;7.50;100.00
82413;BME280;72056;51.980;15.436;2023-12-20T11:13:12;99917.59;;;7.56;100.00
82413;BME280;72056;51.980;15.436;2023-12-20T11:15:43;99909.03;;;7.79;100.00
82413;BME280;72056;51.980;15.436;2023-12-20T11:18:10;99908.59;;;7.26;100.00
82413;BME280;72056;51.980;15.436;2023-12-20T11:20:41;99908.69;;;7.06;100.00
82413;BME280;72056;51.980;15.436;2023-12-20T11:23:09;99897.59;;;7.09;100.00
82413;BME280;72056;51.980;15.436;2023-12-20T11:25:56;99891.19;;;7.29;100.00
82413;BME280;72056;51.980;15.436;2023-12-20T11:28:31;99895.88;;;7.17;100.00
82413;BME280;72056;51.980;15.436;2023-12-20T11:30:58;99881.34;;;7.09;100.00
82413;BME280;72056;51.980;15.436;2023-12-20T11:33:36;99886.47;;;7.02;100.00
82413;BME280;72056;51.980;15.436;2023-12-20T11:36:14;99883.28;;;6.87;100.00
82413;BME280;72056;51.980;15.436;2023-12-20T11:38:58;99876.34;;;6.94;100.00
82413;BME280;72056;51.980;15.436;2023-12-20T11:41:26;99874.91;;;7.00;100.00
82413;BME280;72056;51.980;15.436;2023-12-20T11:43:53;99861.13;;;7.13;100.00
82413;BME280;72056;51.980;15.436;2023-12-20T11:46:25;99852.16;;;7.03;100.00
82413;BME280;72056;51.980;15.436;2023-12-20T11:48:52;99851.25;;;6.92;100.00
82413;BME280;72056;51.980;15.436;2023-12-20T11:51:19;99851.88;;;7.25;100.00
82413;BME280;72056;51.980;15.436;2023-12-20T11:53:51;99842.47;;;7.29;100.00
82413;BME280;72056;51.980;15.436;2023-12-20T11:56:19;99835.03;;;7.21;100.00
82413;BME280;72056;51.980;15.436;2023-12-20T11:58:46;99841.16;;;7.33;100.00
82413;BME280;72056;51.980;15.436;2023-12-20T12:01:14;99837.03;;;7.29;100.00
82413;BME280;72056;51.980;15.436;2023-12-20T12:03:42;99844.88;;;7.22;100.00
82413;BME280;72056;51.980;15.436;2023-12-20T12:06:09;99854.88;;;7.41;100.00
82413;BME280;72056;51.980;15.436;2023-12-20T12:08:41;99852.75;;;7.45;100.00
82413;BME280;72056;51.980;15.436;2023-12-20T12:11:12;99830.91;;;7.46;100.00
82413;BME280;72056;51.980;15.436;2023-12-20T12:13:39;99846.16;;;7.47;100.00
82413;BME280;72056;51.980;15.436;2023-12-20T12:16:06;99851.16;;;7.42;100.00
82413;BME280;72056;51.980;15.436;2023-12-20T12:18:33;99837.03;;;7.67;100.00
82413;BME280;72056;51.980;15.436;2023-12-20T12:21:01;99845.03;;;7.59;100.00
82413;BME280;72056;51.980;15.436;2023-12-20T12:23:29;99833.63;;;7.27;100.00
82413;BME280;72056;51.980;15.436;2023-12-20T12:26:04;99831.63;;;7.29;100.00
82413;BME280;72056;51.980;15.436;2023-12-20T12:28:31;99824.50;;;7.47;100.00
82413;BME280;72056;51.980;15.436;2023-12-20T12:30:59;99817.78;;;7.61;100.00
82413;BME280;72056;51.980;15.436;2023-12-20T12:33:27;99807.53;;;7.45;100.00
82413;BME280;72056;51.980;15.436;2023-12-20T12:35:54;99792.84;;;7.57;100.00
82413;BME280;72056;51.980;15.436;2023-12-20T12:38:22;99796.41;;;7.67;100.00
82413;BME280;72056;51.980;15.436;2023-12-20T12:40:49;99792.44;;;7.43;100.00
82413;BME280;72056;51.980;15.436;2023-12-20T12:43:17;99791.72;;;7.50;100.00
82413;BME280;72056;51.980;15.436;2023-12-20T12:45:44;99800.44;;;7.34;100.00
82413;BME280;72056;51.980;15.436;2023-12-20T12:48:11;99784.88;;;7.46;100.00
82413;BME280;72056;51.980;15.436;2023-12-20T12:50:38;99772.97;;;7.76;100.00
82413;BME280;72056;51.980;15.436;2023-12-20T12:53:06;99772.13;;;7.75;100.00
82413;BME280;72056;51.980;15.436;2023-12-20T12:55:33;99762.06;;;7.58;100.00
82413;BME280;72056;51.980;15.436;2023-12-20T12:58:00;99755.63;;;7.59;100.00